Time;durP1;ratioP1;P1;durP2;ratioP2;P2;SDS_P1;SDS_P2;PMS_P1;PMS_P2;Temp;Humidity;BMP_temperature;BMP_pressure;BME280_temperature;BME280_humidity;BME280_pressure;Samples;Min_cycle;Max_cycle;Signal;HPM_P1;HPM_P2
2022/01/03 00:01:29;;;;;;;23.15;6.90;;;;;;;9.14;86.13;98154.88;2145257;83;20992;-63
2022/01/03 00:04:30;;;;;;;21.07;6.20;;;;;;;9.11;86.83;98127.14;2144967;83;20992;-63
2022/01/03 00:07:30;;;;;;;22.87;6.12;;;;;;;9.07;86.28;98124.83;2144804;83;21086;-63
2022/01/03 00:10:33;;;;;;;29.37;10.60;;;;;;;9.06;86.68;98128.38;2144955;83;21534;-63
2022/01/03 00:13:33;;;;;;;21.65;6.45;;;;;;;9.01;86.48;98122.15;2145232;83;21079;-64
2022/01/03 00:16:34;;;;;;;22.27;6.40;;;;;;;9.03;86.56;98118.13;2144466;83;20988;-63
2022/01/03 00:19:35;;;;;;;21.37;6.50;;;;;;;9.01;86.90;98111.20;2144689;83;21034;-63
2022/01/03 00:22:35;;;;;;;22.58;6.62;;;;;;;9.01;86.66;98129.52;2144943;83;21537;-64
2022/01/03 00:25:36;;;;;;;22.22;6.60;;;;;;;8.99;87.03;98107.86;2144900;83;20995;-63
2022/01/03 00:28:36;;;;;;;21.15;6.55;;;;;;;8.94;87.17;98124.80;2144966;83;21020;-64
2022/01/03 00:31:37;;;;;;;21.42;6.70;;;;;;;8.90;87.06;98112.86;2145069;83;21051;-64
2022/01/03 00:34:37;;;;;;;20.80;5.92;;;;;;;8.90;87.34;98118.91;2144912;83;21079;-63
2022/01/03 00:37:38;;;;;;;20.72;6.00;;;;;;;8.87;86.49;98118.30;2144588;83;21000;-63
2022/01/03 00:40:38;;;;;;;21.50;6.37;;;;;;;8.86;86.79;98132.30;2144928;83;21020;-63
2022/01/03 00:43:39;;;;;;;26.12;6.55;;;;;;;8.84;87.03;98108.86;2144653;83;21507;-63
2022/01/03 00:46:41;;;;;;;21.45;6.30;;;;;;;8.82;86.90;98131.64;2144889;83;21558;-63
2022/01/03 00:49:41;;;;;;;20.95;6.42;;;;;;;8.80;86.77;98134.84;2144950;83;21051;-63
2022/01/03 00:52:42;;;;;;;23.87;6.90;;;;;;;8.76;87.25;98100.67;2138338;83;20941;-64
2022/01/03 00:55:42;;;;;;;22.95;6.45;;;;;;;8.74;87.41;98113.84;2138043;83;21000;-63
2022/01/03 00:58:42;;;;;;;24.92;6.62;;;;;;;8.72;87.53;98118.35;2138196;83;21054;-63
2022/01/03 01:01:43;;;;;;;25.57;6.85;;;;;;;8.69;88.00;98113.30;2138150;83;21518;-64
2022/01/03 01:04:43;;;;;;;23.38;6.75;;;;;;;8.65;88.12;98102.69;2137816;83;21070;-63
2022/01/03 01:07:44;;;;;;;22.82;5.95;;;;;;;8.64;87.37;98116.69;2138094;83;21008;-63
2022/01/03 01:10:44;;;;;;;21.07;6.25;;;;;;;8.63;87.52;98110.64;2138321;83;21020;-62
2022/01/03 01:13:45;;;;;;;21.77;5.65;;;;;;;8.60;87.75;98094.30;2138192;83;20957;-63
2022/01/03 01:16:45;;;;;;;20.55;6.25;;;;;;;8.55;87.66;98085.45;2138109;83;20953;-63
2022/01/03 01:19:46;;;;;;;20.50;6.03;;;;;;;8.52;88.42;98094.80;2137998;83;20997;-63
2022/01/03 01:22:46;;;;;;;18.73;5.87;;;;;;;8.49;87.99;98094.97;2138194;83;21472;-63
2022/01/03 01:28:47;;;;;;;21.60;6.40;;;;;;;8.56;87.90;98100.20;2138332;83;21099;-62
2022/01/03 01:31:48;;;;;;;23.62;7.20;;;;;;;8.54;87.96;98093.39;2137974;83;21047;-63
2022/01/03 01:34:48;;;;;;;25.08;7.05;;;;;;;8.57;87.94;98094.50;2138145;83;21024;-63
2022/01/03 01:37:49;;;;;;;22.60;6.62;;;;;;;8.59;87.91;98101.31;2138054;83;21495;-63
2022/01/03 01:40:49;;;;;;;22.32;5.37;;;;;;;8.62;87.89;98091.95;2137995;83;21032;-63
2022/01/03 01:43:50;;;;;;;20.55;6.22;;;;;;;8.63;87.01;98109.77;2137984;83;20999;-63
2022/01/03 01:46:52;;;;;;;21.12;5.85;;;;;;;8.66;87.14;98094.75;2138321;83;21038;-63
2022/01/03 01:49:53;;;;;;;20.90;5.72;;;;;;;8.67;87.03;98072.05;2138268;83;20996;-63
2022/01/03 01:52:53;;;;;;;20.25;6.33;;;;;;;8.70;86.81;98082.78;2144345;83;21063;-63
2022/01/03 01:55:54;;;;;;;22.37;6.95;;;;;;;8.72;86.56;98076.97;2144947;83;21027;-63
2022/01/03 01:58:54;;;;;;;21.73;5.95;;;;;;;8.71;86.48;98069.61;2144646;83;21023;-63
2022/01/03 02:01:55;;;;;;;20.45;5.62;;;;;;;8.67;86.87;98051.13;2145046;83;21027;-63
2022/01/03 02:04:55;;;;;;;20.68;5.80;;;;;;;8.61;86.77;98065.44;2144638;83;20983;-63
2022/01/03 02:07:56;;;;;;;19.27;5.90;;;;;;;8.60;86.75;98054.60;2144837;83;20987;-63
2022/01/03 02:10:56;;;;;;;18.48;5.47;;;;;;;8.58;86.49;98050.44;2144601;83;21514;-63
2022/01/03 02:13:57;;;;;;;20.32;5.50;;;;;;;8.56;86.86;98035.31;2145036;83;21015;-63
2022/01/03 02:16:57;;;;;;;22.73;5.97;;;;;;;8.53;86.59;98021.14;2144659;83;21036;-63
2022/01/03 02:19:58;;;;;;;21.10;5.75;;;;;;;8.51;86.72;98049.98;2144858;83;20991;-63
2022/01/03 02:22:58;;;;;;;20.75;5.67;;;;;;;8.54;86.64;98045.03;2144945;83;20991;-64
2022/01/03 02:25:59;;;;;;;21.60;5.92;;;;;;;8.56;87.14;98044.01;2144365;83;21079;-63
2022/01/03 02:29:00;;;;;;;24.23;5.83;;;;;;;8.57;86.59;98046.97;2144840;83;21444;-63
2022/01/03 02:32:00;;;;;;;19.02;5.95;;;;;;;8.61;86.11;98039.78;2144673;83;21530;-63
2022/01/03 02:35:00;;;;;;;20.37;5.83;;;;;;;8.60;86.12;98042.84;2144686;83;21004;-63
2022/01/03 02:38:01;;;;;;;22.17;6.05;;;;;;;8.58;85.99;98044.73;2145288;83;21039;-64
2022/01/03 02:41:01;;;;;;;20.50;6.37;;;;;;;8.56;86.28;98061.45;2144975;83;20999;-63
2022/01/03 02:44:02;;;;;;;20.65;5.85;;;;;;;8.53;85.77;98052.50;2144927;83;21034;-64
2022/01/03 02:47:02;;;;;;;20.23;6.37;;;;;;;8.53;86.55;98048.58;2144807;83;21030;-63
2022/01/03 02:50:03;;;;;;;20.90;5.90;;;;;;;8.51;86.73;98032.17;2144763;83;21035;-63
2022/01/03 02:53:03;;;;;;;19.95;5.67;;;;;;;8.52;86.05;98042.98;2144496;83;21546;-63
2022/01/03 02:56:04;;;;;;;23.27;6.30;;;;;;;8.49;86.39;98049.23;2144431;83;21547;-63
2022/01/03 02:59:04;;;;;;;19.60;5.22;;;;;;;8.49;86.03;98045.31;2144709;83;21003;-63
2022/01/03 03:02:05;;;;;;;20.85;6.12;;;;;;;8.44;86.19;98048.67;2144752;83;21040;-63
2022/01/03 03:05:06;;;;;;;25.23;8.78;;;;;;;8.36;86.63;98033.95;2144790;83;20980;-63
2022/01/03 03:08:06;;;;;;;23.15;6.87;;;;;;;8.26;86.54;98024.55;2144705;83;20996;-63
2022/01/03 03:11:07;;;;;;;18.60;5.62;;;;;;;8.22;86.91;98025.23;2144748;83;21563;-63
2022/01/03 03:14:07;;;;;;;22.50;5.95;;;;;;;8.20;87.02;98020.56;2144670;83;20965;-63
2022/01/03 03:17:08;;;;;;;20.40;5.70;;;;;;;8.18;87.31;98034.69;2144340;83;21024;-63
2022/01/03 03:20:08;;;;;;;21.25;6.17;;;;;;;8.12;86.93;98031.52;2144447;83;21499;-63
2022/01/03 03:23:09;;;;;;;20.82;6.45;;;;;;;8.07;87.71;98027.03;2144609;83;20996;-63
2022/01/03 03:26:10;;;;;;;23.92;7.45;;;;;;;8.01;88.04;98015.68;2144882;83;20980;-63
2022/01/03 03:29:10;;;;;;;22.85;6.83;;;;;;;7.98;88.18;98019.31;2144825;83;20980;-64
2022/01/03 03:32:11;;;;;;;25.55;6.83;;;;;;;7.90;88.32;98011.16;2144736;83;21003;-63
2022/01/03 03:35:11;;;;;;;24.45;6.17;;;;;;;7.82;88.46;98005.56;2144618;83;20991;-63
2022/01/03 03:38:12;;;;;;;24.65;7.05;;;;;;;7.71;88.78;98013.23;2144779;83;21574;-63
2022/01/03 03:41:12;;;;;;;24.07;7.80;;;;;;;7.63;89.08;98005.41;2144628;83;21035;-63
2022/01/03 03:44:14;;;;;;;24.93;7.30;;;;;;;7.57;89.30;97995.36;2144528;83;21543;-62
2022/01/03 03:47:14;;;;;;;23.27;7.92;;;;;;;7.48;89.67;97990.69;2144655;83;21047;-63
2022/01/03 03:50:15;;;;;;;24.95;8.65;;;;;;;7.41;89.98;97990.70;2144914;83;21007;-63
2022/01/03 03:53:16;;;;;;;26.77;7.95;;;;;;;7.33;90.27;97992.95;2138377;83;21012;-63
2022/01/03 03:56:17;;;;;;;23.35;6.83;;;;;;;7.29;90.41;97990.51;2138035;83;21016;-63
2022/01/03 03:59:17;;;;;;;23.77;6.42;;;;;;;7.28;90.79;97993.21;2138099;83;21012;-63
2022/01/03 04:02:18;;;;;;;25.17;7.03;;;;;;;7.25;91.24;97985.58;2138089;82;20984;-63
2022/01/03 04:05:18;;;;;;;24.18;6.05;;;;;;;7.26;91.47;97989.87;2138072;83;21055;-63
2022/01/03 04:08:19;;;;;;;23.35;6.87;;;;;;;7.28;91.78;97990.16;2138283;83;21000;-63
2022/01/03 04:11:20;;;;;;;25.27;7.40;;;;;;;7.36;91.65;97981.03;2137980;83;21056;-63
2022/01/03 04:14:20;;;;;;;22.00;6.47;;;;;;;7.39;91.85;97981.66;2137861;83;21136;-63
2022/01/03 04:17:21;;;;;;;22.90;5.62;;;;;;;7.46;91.78;97979.05;2137738;83;21047;-63
2022/01/03 04:20:22;;;;;;;22.25;6.30;;;;;;;7.53;91.71;97966.47;2137921;83;20999;-63
2022/01/03 04:23:22;;;;;;;20.35;6.30;;;;;;;7.57;91.79;97964.04;2138203;83;20988;-63
2022/01/03 04:26:23;;;;;;;21.25;6.42;;;;;;;7.62;91.43;97963.27;2138169;83;21016;-63
2022/01/03 04:29:23;;;;;;;20.95;5.95;;;;;;;7.68;91.64;97967.75;2138045;83;20973;-62
2022/01/03 04:32:24;;;;;;;22.82;6.30;;;;;;;7.67;91.50;97940.81;2137923;83;21007;-62
2022/01/03 04:35:24;;;;;;;21.25;6.20;;;;;;;7.72;91.21;97958.80;2138119;83;21028;-63
2022/01/03 04:38:25;;;;;;;18.55;5.53;;;;;;;7.74;91.44;97952.55;2138175;83;21495;-63
2022/01/03 04:41:26;;;;;;;18.25;5.40;;;;;;;7.75;91.67;97942.45;2137712;83;21079;-63
2022/01/03 04:44:27;;;;;;;22.48;5.55;;;;;;;7.75;91.44;97948.15;2138102;83;21579;-63
2022/01/03 04:47:27;;;;;;;21.05;5.95;;;;;;;7.76;91.51;97942.83;2138074;83;21031;-63
2022/01/03 04:50:27;;;;;;;22.27;6.55;;;;;;;7.77;91.44;97947.57;2138404;83;21052;-63
2022/01/03 04:53:28;;;;;;;22.45;6.47;;;;;;;7.78;91.75;97940.12;2143922;83;21047;-62
2022/01/03 04:56:28;;;;;;;19.77;5.92;;;;;;;7.77;91.63;97925.38;2145010;83;21024;-63
2022/01/03 04:59:29;;;;;;;20.32;5.75;;;;;;;7.75;91.48;97923.34;2144899;83;21111;-62
2022/01/03 05:02:30;;;;;;;20.25;5.85;;;;;;;7.73;91.72;97917.38;2145044;83;21435;-63
2022/01/03 05:05:30;;;;;;;19.65;5.80;;;;;;;7.70;91.50;97925.41;2144749;83;20996;-63
2022/01/03 05:08:31;;;;;;;19.40;5.53;;;;;;;7.65;91.49;97930.92;2144917;83;21015;-63
2022/01/03 05:11:32;;;;;;;21.80;6.78;;;;;;;7.60;91.44;97940.36;2144713;83;21031;-63
2022/01/03 05:14:33;;;;;;;21.87;6.53;;;;;;;7.55;91.60;97937.19;2144411;83;21011;-63
2022/01/03 05:17:33;;;;;;;21.30;6.30;;;;;;;7.48;91.81;97926.77;2144870;83;21519;-63
2022/01/03 05:20:34;;;;;;;20.95;6.87;;;;;;;7.44;92.07;97924.83;2144788;83;21261;-63
2022/01/03 05:23:34;;;;;;;22.85;6.20;;;;;;;7.41;92.24;97915.89;2144728;83;21047;-63
2022/01/03 05:26:35;;;;;;;19.30;5.97;;;;;;;7.41;92.60;97920.25;2144901;83;21051;-63
2022/01/03 05:29:36;;;;;;;20.72;6.33;;;;;;;7.42;92.74;97916.72;2144887;83;21020;-63
2022/01/03 05:32:36;;;;;;;23.70;6.50;;;;;;;7.43;92.77;97911.40;2144764;83;21015;-63
2022/01/03 05:35:37;;;;;;;23.50;6.72;;;;;;;7.46;92.50;97913.81;2144882;83;21479;-63
2022/01/03 05:38:38;;;;;;;25.75;8.28;;;;;;;7.53;92.62;97884.27;2144718;83;21087;-63
2022/01/03 05:41:38;;;;;;;29.20;9.10;;;;;;;7.54;92.79;97883.34;2144792;83;20992;-63
2022/01/03 05:44:38;;;;;;;26.42;7.50;;;;;;;7.57;92.58;97887.05;2145066;83;21019;-63
2022/01/03 05:47:42;;;;;;;25.90;8.13;;;;;;;7.60;93.01;97879.47;2144994;83;20979;-63
2022/01/03 05:50:41;;;;;;;21.68;6.55;;;;;;;7.58;93.72;97879.57;2118963;83;21502;-63
2022/01/03 05:53:42;;;;;;;21.80;6.70;;;;;;;7.55;94.51;97890.69;2144657;83;21076;-63
2022/01/03 05:56:42;;;;;;;18.52;5.53;;;;;;;7.52;94.63;97896.11;2144911;83;21043;-63
2022/01/03 05:59:42;;;;;;;21.70;6.53;;;;;;;7.56;94.77;97885.84;2144945;83;21026;-63
2022/01/03 06:02:43;;;;;;;21.90;5.72;;;;;;;7.59;94.84;97888.26;2144985;83;21071;-62
2022/01/03 06:08:47;;;;;;;;;;;;;;;7.58;96.07;97890.01;2120748;83;21040;-63
2022/01/03 06:11:47;;;;;;;20.97;6.10;;;;;;;7.53;96.51;97885.57;2144865;82;20388;-62
2022/01/03 06:14:48;;;;;;;19.55;5.40;;;;;;;7.51;97.19;97870.45;2144899;83;21031;-63
2022/01/03 06:17:49;;;;;;;20.17;5.65;;;;;;;7.47;98.55;97878.14;2144862;83;20984;-63
2022/01/03 06:20:49;;;;;;;23.50;5.70;;;;;;;7.40;100.00;97885.98;2144833;83;20983;-63
2022/01/03 06:23:50;;;;;;;21.93;5.83;;;;;;;7.34;100.00;97875.47;2144710;83;20957;-63
2022/01/03 06:26:50;;;;;;;20.92;5.22;;;;;;;7.32;100.00;97876.02;2144828;83;21494;-63
2022/01/03 06:29:51;;;;;;;22.67;6.33;;;;;;;7.27;100.00;97871.09;2144728;83;20957;-63
2022/01/03 06:32:52;;;;;;;20.95;5.42;;;;;;;7.24;100.00;97864.77;2144573;83;21063;-63
2022/01/03 06:35:52;;;;;;;20.35;5.20;;;;;;;7.19;100.00;97855.55;2144910;83;20999;-63
2022/01/03 06:38:52;;;;;;;20.08;5.60;;;;;;;7.15;100.00;97879.67;2144941;83;21015;-62
2022/01/03 06:41:53;;;;;;;21.02;5.78;;;;;;;7.12;100.00;97864.22;2144669;83;21024;-62
2022/01/03 06:44:53;;;;;;;21.37;5.67;;;;;;;7.13;100.00;97884.16;2144762;83;20992;-62
2022/01/03 06:47:54;;;;;;;21.02;6.05;;;;;;;7.12;100.00;97879.86;2144793;83;21506;-62
2022/01/03 06:50:55;;;;;;;21.87;6.60;;;;;;;7.09;100.00;97894.40;2144673;83;21482;-62
2022/01/03 06:53:55;;;;;;;21.30;6.05;;;;;;;7.06;100.00;97887.59;2144799;83;21008;-63
2022/01/03 06:56:56;;;;;;;23.47;6.33;;;;;;;7.04;100.00;97888.62;2144943;83;20987;-62
2022/01/03 06:59:56;;;;;;;23.85;6.53;;;;;;;7.04;100.00;97882.95;2144538;83;21035;-63
2022/01/03 07:02:57;;;;;;;28.67;8.90;;;;;;;7.04;100.00;97875.58;2144992;83;21044;-63
2022/01/03 07:05:57;;;;;;;23.77;7.62;;;;;;;7.03;100.00;97882.58;2144651;83;20995;-63
2022/01/03 07:08:58;;;;;;;25.12;7.40;;;;;;;7.05;100.00;97881.17;2144794;83;21514;-62
2022/01/03 07:11:59;;;;;;;26.85;9.08;;;;;;;7.06;100.00;97869.34;2144697;83;21008;-63
2022/01/03 07:21:02;;;;;;;20.68;6.08;;;;;;;7.17;100.00;97875.21;2118711;83;20996;-62
2022/01/03 07:24:03;;;;;;;19.85;5.12;;;;;;;7.23;100.00;97859.65;2144678;83;21015;-63
2022/01/03 07:27:04;;;;;;;20.32;5.60;;;;;;;7.28;100.00;97859.73;2144566;83;21488;-63
2022/01/03 07:30:05;;;;;;;15.77;5.00;;;;;;;7.36;100.00;97859.72;2144861;83;21506;-63
2022/01/03 07:33:06;;;;;;;20.90;6.17;;;;;;;7.40;100.00;97869.86;2144921;83;20980;-62
2022/01/03 07:36:08;;;;;;;18.52;4.97;;;;;;;7.46;100.00;97858.19;2145004;83;21027;-63
2022/01/03 07:39:08;;;;;;;20.37;4.92;;;;;;;7.50;100.00;97864.03;2144818;83;20965;-63
2022/01/03 07:42:09;;;;;;;24.63;6.65;;;;;;;7.52;100.00;97863.48;2144687;83;21042;-63
2022/01/03 07:45:09;;;;;;;21.27;5.83;;;;;;;7.57;100.00;97871.39;2144674;83;21035;-63
2022/01/03 07:48:12;;;;;;;21.27;5.17;;;;;;;7.57;100.00;97880.53;2144918;83;21019;-62
2022/01/03 07:51:12;;;;;;;20.88;5.58;;;;;;;7.62;100.00;97886.27;2118568;83;21533;-63
2022/01/03 07:54:13;;;;;;;19.87;5.10;;;;;;;7.68;100.00;97858.12;2144660;83;21062;-63
2022/01/03 07:57:14;;;;;;;19.20;4.12;;;;;;;7.75;99.71;97890.24;2144985;83;21083;-62
2022/01/03 08:00:14;;;;;;;15.40;3.90;;;;;;;7.76;99.73;97890.63;2144840;83;20991;-63
2022/01/03 08:03:15;;;;;;;17.62;4.12;;;;;;;7.76;99.80;97897.14;2144745;83;21079;-62
2022/01/03 08:06:16;;;;;;;16.07;4.00;;;;;;;7.76;99.33;97907.59;2144580;83;21004;-63
2022/01/03 08:09:17;;;;;;;15.18;3.98;;;;;;;7.78;99.01;97903.09;2145012;83;21067;-63
2022/01/03 08:12:18;;;;;;;16.45;3.77;;;;;;;7.83;98.98;97887.61;2144967;83;21007;-63
2022/01/03 08:15:18;;;;;;;14.63;4.03;;;;;;;7.84;98.65;97907.08;2144783;83;20996;-63
2022/01/03 08:18:19;;;;;;;17.85;4.20;;;;;;;7.87;98.71;97904.27;2144956;83;21016;-63
2022/01/03 08:21:19;;;;;;;14.75;3.50;;;;;;;7.90;97.89;97911.94;2144833;83;21444;-63
2022/01/03 08:24:20;;;;;;;13.88;3.92;;;;;;;7.92;98.11;97900.08;2144939;83;21012;-63
2022/01/03 08:27:21;;;;;;;14.38;3.50;;;;;;;7.94;97.45;97919.94;2145051;83;20991;-63
2022/01/03 08:30:21;;;;;;;14.83;4.20;;;;;;;7.98;97.28;97925.78;2145136;83;21003;-63
2022/01/03 08:33:21;;;;;;;18.87;4.25;;;;;;;8.01;96.84;97927.37;2144910;83;21083;-63
2022/01/03 08:36:22;;;;;;;17.05;3.90;;;;;;;8.04;96.33;97918.02;2145210;83;20987;-63
2022/01/03 08:39:22;;;;;;;15.25;3.60;;;;;;;8.08;95.96;97919.50;2144964;83;21031;-62
2022/01/03 08:42:24;;;;;;;12.95;3.27;;;;;;;8.09;96.29;97919.40;2144914;83;21047;-63
2022/01/03 08:45:25;;;;;;;16.40;3.60;;;;;;;8.12;95.96;97937.48;2144770;83;21124;-62
2022/01/03 08:48:25;;;;;;;17.60;3.67;;;;;;;8.10;97.25;97930.67;2145055;82;20985;-63
2022/01/03 08:51:26;;;;;;;18.20;5.00;;;;;;;8.05;98.14;97924.45;2144758;83;21040;-62
2022/01/03 08:54:26;;;;;;;19.32;4.40;;;;;;;8.03;98.20;97934.63;2138923;83;20980;-63
2022/01/03 08:57:27;;;;;;;18.35;3.85;;;;;;;8.04;98.69;97927.16;2138184;83;21055;-63
2022/01/03 09:00:28;;;;;;;19.37;4.28;;;;;;;8.04;97.28;97935.83;2138308;83;21503;-63
2022/01/03 09:03:28;;;;;;;15.85;3.98;;;;;;;8.09;97.06;97930.33;2138274;83;21079;-63
2022/01/03 09:06:29;;;;;;;14.00;3.70;;;;;;;8.12;95.47;97934.05;2138318;83;21027;-63
2022/01/03 09:09:32;;;;;;;16.48;3.87;;;;;;;8.19;95.08;97931.84;2138020;83;21092;-63
2022/01/03 09:12:33;;;;;;;;;;;;;;;8.27;95.67;97921.26;2140562;83;21296;-62
2022/01/03 09:15:33;;;;;;;10.48;2.87;;;;;;;8.34;94.14;97925.62;2138158;83;20153;-63
2022/01/03 09:18:34;;;;;;;13.55;3.47;;;;;;;8.38;93.63;97930.19;2137958;83;21067;-63
2022/01/03 09:21:34;;;;;;;13.70;3.60;;;;;;;8.39;93.73;97938.38;2137764;83;21007;-63
2022/01/03 09:30:41;;;;;;;11.75;2.87;;;;;;;8.37;92.84;97963.78;2110121;83;21096;-63
2022/01/03 09:33:41;;;;;;;15.95;3.98;;;;;;;8.37;92.84;97963.78;2138252;83;20981;-63
2022/01/03 09:36:42;;;;;;;15.70;3.15;;;;;;;8.40;92.02;97943.98;2138282;83;20984;-63
2022/01/03 09:39:42;;;;;;;11.93;3.15;;;;;;;8.44;92.86;97935.00;2138023;83;21019;-62
2022/01/03 09:42:43;;;;;;;13.25;3.70;;;;;;;8.41;93.97;97908.59;2138152;83;21593;-63
2022/01/03 09:45:43;;;;;;;14.03;2.85;;;;;;;8.34;93.59;97929.54;2138053;83;21024;-63
2022/01/03 09:48:44;;;;;;;15.30;3.52;;;;;;;8.25;93.44;97922.32;2138096;83;21051;-63
2022/01/03 09:51:45;;;;;;;12.40;2.77;;;;;;;8.20;94.03;97923.08;2138203;83;21040;-63
2022/01/03 09:54:46;;;;;;;9.88;3.00;;;;;;;8.19;94.02;97905.72;2143625;83;21118;-63
2022/01/03 09:57:46;;;;;;;11.55;3.00;;;;;;;8.22;92.51;97914.21;2144812;83;21522;-63
2022/01/03 10:00:47;;;;;;;14.33;2.83;;;;;;;8.33;92.74;97912.17;2144987;83;21065;-63
2022/01/03 10:03:48;;;;;;;11.22;2.55;;;;;;;8.45;90.87;97887.06;2144724;83;20979;-63
2022/01/03 10:06:48;;;;;;;17.35;2.98;;;;;;;8.49;90.04;97915.94;2144912;83;21023;-63
2022/01/03 10:09:49;;;;;;;9.80;2.33;;;;;;;8.49;89.46;97898.50;2144880;83;20980;-62
2022/01/03 10:12:50;;;;;;;11.73;2.95;;;;;;;8.41;89.43;97910.38;2144322;83;21082;-63
2022/01/03 10:15:52;;;;;;;12.70;3.00;;;;;;;8.27;91.39;97905.58;2144616;83;21491;-63
2022/01/03 10:18:52;;;;;;;12.93;2.80;;;;;;;8.16;91.99;97867.61;2144839;83;21023;-62
2022/01/03 10:21:52;;;;;;;16.80;3.35;;;;;;;8.08;92.36;97892.08;2144961;83;21019;-63
2022/01/03 10:24:53;;;;;;;18.85;3.27;;;;;;;8.02;92.61;97878.95;2144816;83;21019;-63
2022/01/03 10:27:54;;;;;;;12.05;2.62;;;;;;;7.98;92.64;97884.83;2144876;82;21003;-63
2022/01/03 10:30:54;;;;;;;12.68;2.80;;;;;;;7.96;92.24;97876.27;2144803;83;21538;-63
2022/01/03 10:33:55;;;;;;;11.80;2.52;;;;;;;7.97;92.25;97853.59;2144623;83;21475;-62
2022/01/03 10:36:55;;;;;;;10.18;2.50;;;;;;;8.01;90.07;97877.75;2144672;83;20980;-62
2022/01/03 10:39:56;;;;;;;10.53;2.27;;;;;;;8.00;90.69;97866.45;2144530;83;21059;-62
2022/01/03 10:42:57;;;;;;;6.95;2.20;;;;;;;8.03;89.31;97873.25;2144932;83;20999;-62
2022/01/03 10:45:58;;;;;;;12.53;2.83;;;;;;;8.14;88.61;97853.31;2144612;83;21062;-63
2022/01/03 10:48:58;;;;;;;9.35;2.33;;;;;;;8.21;88.72;97874.65;2144721;83;20987;-62
2022/01/03 10:51:59;;;;;;;15.18;3.25;;;;;;;8.31;87.13;97845.66;2144827;83;21023;-62
2022/01/03 10:54:59;;;;;;;11.12;2.67;;;;;;;8.31;88.42;97850.88;2144691;83;21526;-62
2022/01/03 10:57:59;;;;;;;12.90;2.77;;;;;;;8.32;86.81;97820.39;2144843;83;21582;-63
2022/01/03 11:01:00;;;;;;;13.50;2.72;;;;;;;8.34;86.52;97848.54;2145057;83;21511;-63
2022/01/03 11:04:03;;;;;;;14.73;3.02;;;;;;;8.33;86.84;97817.67;2144849;83;21039;-63
2022/01/03 11:07:03;;;;;;;12.15;2.83;;;;;;;8.39;85.64;97854.75;2144839;83;21153;-63
2022/01/03 11:13:06;;;;;;;;;;;;;;;8.30;86.58;97864.91;2120937;83;21024;-62
2022/01/03 11:16:08;;;;;;;16.25;2.83;;;;;;;8.19;88.71;97877.84;2144853;82;20456;-63
2022/01/03 11:19:08;;;;;;;15.10;2.25;;;;;;;8.02;92.19;97866.37;2144830;83;21060;-62
2022/01/03 11:22:09;;;;;;;5.05;1.85;;;;;;;7.81;93.78;97887.70;2144826;83;20991;-63
2022/01/03 11:25:09;;;;;;;6.55;1.65;;;;;;;7.43;97.54;97891.00;2144754;83;21027;-63
2022/01/03 11:28:10;;;;;;;10.03;1.85;;;;;;;6.96;100.00;97919.08;2144772;83;21462;-63
2022/01/03 11:31:10;;;;;;;9.88;1.82;;;;;;;6.70;100.00;97891.98;2144616;83;21023;-63
2022/01/03 11:34:11;;;;;;;7.55;2.00;;;;;;;6.59;100.00;97905.64;2144304;83;21040;-63
2022/01/03 11:37:11;;;;;;;12.23;2.15;;;;;;;6.52;100.00;97875.67;2144911;83;20988;-63
2022/01/03 11:40:12;;;;;;;12.20;2.25;;;;;;;6.52;100.00;97886.95;2144859;83;20987;-63
2022/01/03 11:43:12;;;;;;;10.43;2.08;;;;;;;6.51;100.00;97881.84;2144718;83;21027;-63
2022/01/03 11:46:13;;;;;;;10.00;2.52;;;;;;;6.50;100.00;97904.91;2144324;83;21063;-63
2022/01/03 11:49:13;;;;;;;11.08;1.95;;;;;;;6.44;100.00;97920.42;2144785;83;21027;-63
2022/01/03 11:52:15;;;;;;;12.75;2.33;;;;;;;6.40;100.00;97941.06;2144613;83;21591;-62
2022/01/03 11:55:16;;;;;;;10.23;2.20;;;;;;;6.37;100.00;97906.91;2139095;83;21104;-62
2022/01/03 12:04:21;;;;;;;6.75;1.70;;;;;;;6.44;100.00;97946.92;2110315;83;21000;-62
2022/01/03 12:07:22;;;;;;;5.37;1.30;;;;;;;6.49;100.00;97918.38;2137925;83;20980;-62
2022/01/03 12:10:24;;;;;;;5.67;1.52;;;;;;;6.54;100.00;97899.41;2109795;83;21064;-62
2022/01/03 12:13:24;;;;;;;3.40;1.05;;;;;;;6.56;100.00;97908.44;2138009;83;20965;-63
2022/01/03 12:16:25;;;;;;;7.97;1.35;;;;;;;6.61;100.00;97890.77;2137756;83;21566;-61
2022/01/03 12:19:27;;;;;;;6.05;1.10;;;;;;;6.64;100.00;97893.64;2137875;83;21055;-62
2022/01/03 12:22:28;;;;;;;7.12;1.30;;;;;;;6.73;100.00;97917.39;2138276;83;20988;-62
2022/01/03 12:25:29;;;;;;;5.40;1.30;;;;;;;6.88;100.00;97914.78;2138132;83;21032;-63
2022/01/03 12:28:30;;;;;;;3.75;0.78;;;;;;;6.96;100.00;97928.69;2138008;83;21146;-62
2022/01/03 12:31:30;;;;;;;6.67;1.67;;;;;;;6.96;100.00;97911.26;2138143;83;20984;-63
2022/01/03 12:34:31;;;;;;;6.17;1.40;;;;;;;6.91;100.00;97914.16;2138184;83;20964;-63
2022/01/03 12:37:31;;;;;;;5.70;1.40;;;;;;;6.89;100.00;97912.09;2138147;83;20975;-62
2022/01/03 12:40:31;;;;;;;9.13;1.92;;;;;;;6.85;100.00;97911.06;2138341;83;21011;-63
2022/01/03 12:43:33;;;;;;;7.92;1.35;;;;;;;6.83;100.00;97922.06;2138049;83;20992;-63
2022/01/03 12:47:58;;;;;;;4.30;1.37;;;;;;;6.77;100.00;97933.70;2138048;83;21063;-62
2022/01/03 12:50:58;;;;;;;10.15;2.08;;;;;;;6.77;100.00;97933.70;2138001;83;21003;-63
2022/01/03 12:55:31;;;;;;;7.22;1.60;;;;;;;-147.26;99.27;112874.45;2137934;83;21468;-63
2022/01/03 12:58:32;;;;;;;8.65;2.05;;;;;;;6.68;100.00;97948.11;2138301;83;21117;-63
2022/01/03 13:01:33;;;;;;;9.00;1.87;;;;;;;6.40;100.00;97935.37;2138448;83;21103;-64
2022/01/03 13:04:33;;;;;;;8.08;2.12;;;;;;;6.13;100.00;97947.39;2138111;83;21530;-63
2022/01/03 13:07:34;;;;;;;7.67;1.57;;;;;;;6.07;100.00;97949.41;2138108;83;21022;-64
2022/01/03 13:10:34;;;;;;;8.35;1.47;;;;;;;5.93;100.00;97977.12;2138381;83;21000;-64
2022/01/03 13:13:35;;;;;;;6.37;1.35;;;;;;;5.61;100.00;97958.45;2138256;83;21028;-63
2022/01/03 13:16:35;;;;;;;5.00;1.07;;;;;;;5.49;100.00;98037.16;2137880;83;21028;-64
2022/01/03 13:19:36;;;;;;;5.55;1.07;;;;;;;5.49;100.00;98012.45;2138109;83;20953;-64
2022/01/03 13:22:37;;;;;;;4.95;0.93;;;;;;;5.45;100.00;98019.56;2138150;83;21515;-64
2022/01/03 13:25:37;;;;;;;4.85;1.42;;;;;;;5.43;100.00;97990.65;2138161;83;21020;-64
2022/01/03 13:28:38;;;;;;;3.33;0.98;;;;;;;5.44;100.00;98001.44;2138389;83;20956;-63
2022/01/03 13:31:39;;;;;;;6.90;1.40;;;;;;;5.42;100.00;97988.52;2138271;83;20995;-63
2022/01/03 13:34:40;;;;;;;7.57;1.90;;;;;;;5.42;100.00;97983.32;2138368;83;21016;-63
2022/01/03 13:37:43;;;;;;;10.05;2.10;;;;;;;5.43;100.00;97998.02;2137930;83;21848;-63
2022/01/03 13:40:43;;;;;;;6.55;2.33;;;;;;;5.48;100.00;97980.38;2110742;83;20988;-63
2022/01/03 13:43:48;;;;;;;8.88;2.25;;;;;;;5.54;100.00;97985.72;2138195;83;21028;-63
2022/01/03 13:49:48;;;;;;;14.68;3.22;;;;;;;5.62;100.00;98007.44;2110118;83;21464;-63
2022/01/03 13:52:48;;;;;;;12.40;3.17;;;;;;;5.67;100.00;97998.43;2138334;83;21048;-63
2022/01/03 13:55:49;;;;;;;14.50;3.75;;;;;;;5.71;100.00;97999.95;2138013;83;21020;-62
2022/01/03 13:58:49;;;;;;;16.05;4.17;;;;;;;5.78;100.00;98007.44;2138138;83;20988;-63
2022/01/03 14:01:50;;;;;;;15.30;3.98;;;;;;;5.83;100.00;98005.41;2137880;83;21044;-63
2022/01/03 14:04:51;;;;;;;14.38;3.95;;;;;;;5.88;100.00;98021.16;2138044;83;21035;-63
2022/01/03 14:07:52;;;;;;;16.60;4.22;;;;;;;5.94;100.00;98025.66;2138033;83;21085;-63
2022/01/03 14:10:53;;;;;;;16.90;5.67;;;;;;;5.97;100.00;98017.23;2138029;83;21036;-63
2022/01/03 14:13:54;;;;;;;16.12;4.17;;;;;;;6.01;100.00;98035.67;2137956;83;21547;-62
2022/01/03 14:16:55;;;;;;;11.20;2.90;;;;;;;6.05;100.00;98019.44;2137996;83;21043;-64
2022/01/03 14:19:56;;;;;;;14.73;3.72;;;;;;;6.09;100.00;98027.42;2137794;83;21151;-63
2022/01/03 14:22:56;;;;;;;18.00;4.55;;;;;;;6.11;100.00;98033.87;2138082;83;21012;-63
2022/01/03 14:25:56;;;;;;;15.95;3.77;;;;;;;6.16;100.00;98022.28;2138088;83;21467;-63
2022/01/03 14:28:57;;;;;;;19.80;4.47;;;;;;;6.18;100.00;98049.54;2137738;83;21532;-63
2022/01/03 14:31:59;;;;;;;19.27;4.95;;;;;;;6.18;100.00;98026.94;2138142;83;21031;-63
2022/01/03 14:34:59;;;;;;;18.37;4.12;;;;;;;6.18;100.00;98043.03;2138040;83;21036;-63
2022/01/03 14:38:00;;;;;;;18.37;4.37;;;;;;;6.17;100.00;98040.04;2138109;83;21463;-63
2022/01/03 14:41:02;;;;;;;16.52;4.30;;;;;;;6.16;100.00;98038.35;2138114;83;21474;-63